sensor_id;sensor_type;location;lat;lon;timestamp;pressure;altitude;pressure_sealevel;temperature;humidity
71573;BME280;59408;51.032;9.410;2023-02-10T00:01:03;100853.06;;;-4.85;98.90
71573;BME280;59408;51.032;9.410;2023-02-10T00:03:30;100861.47;;;-4.81;99.10
71573;BME280;59408;51.032;9.410;2023-02-10T00:05:56;100868.88;;;-4.77;98.96
71573;BME280;59408;51.032;9.410;2023-02-10T00:08:23;100862.97;;;-4.72;98.58
71573;BME280;59408;51.032;9.410;2023-02-10T00:10:51;100852.75;;;-4.68;98.88
71573;BME280;59408;51.032;9.410;2023-02-10T00:13:18;100849.91;;;-4.67;98.74
71573;BME280;59408;51.032;9.410;2023-02-10T00:15:44;100851.97;;;-4.62;98.40
71573;BME280;59408;51.032;9.410;2023-02-10T00:18:11;100857.75;;;-4.59;98.07
71573;BME280;59408;51.032;9.410;2023-02-10T00:20:38;100851.22;;;-4.56;98.30
71573;BME280;59408;51.032;9.410;2023-02-10T00:23:05;100861.25;;;-4.52;98.30
71573;BME280;59408;51.032;9.410;2023-02-10T00:25:31;100861.69;;;-4.48;97.54
71573;BME280;59408;51.032;9.410;2023-02-10T00:27:59;100866.41;;;-4.44;97.23
71573;BME280;59408;51.032;9.410;2023-02-10T00:30:26;100863.38;;;-4.41;97.54
71573;BME280;59408;51.032;9.410;2023-02-10T00:32:52;100863.81;;;-4.37;97.12
71573;BME280;59408;51.032;9.410;2023-02-10T00:35:19;100865.88;;;-4.32;97.75
71573;BME280;59408;51.032;9.410;2023-02-10T00:37:46;100871.66;;;-4.29;97.43
71573;BME280;59408;51.032;9.410;2023-02-10T00:40:12;100871.03;;;-4.24;97.56
71573;BME280;59408;51.032;9.410;2023-02-10T00:42:39;100878.66;;;-4.21;97.59
71573;BME280;59408;51.032;9.410;2023-02-10T00:45:07;100877.44;;;-4.19;97.65
71573;BME280;59408;51.032;9.410;2023-02-10T00:47:34;100881.34;;;-4.15;97.41
71573;BME280;59408;51.032;9.410;2023-02-10T00:50:01;100876.63;;;-4.13;97.93
71573;BME280;59408;51.032;9.410;2023-02-10T00:52:28;100881.97;;;-4.13;97.82
71573;BME280;59408;51.032;9.410;2023-02-10T00:54:55;100883.44;;;-4.10;97.75
71573;BME280;59408;51.032;9.410;2023-02-10T00:57:21;100876.66;;;-4.06;97.98
71573;BME280;59408;51.032;9.410;2023-02-10T00:59:48;100892.28;;;-4.03;98.16
71573;BME280;59408;51.032;9.410;2023-02-10T01:02:16;100883.25;;;-4.02;97.98
71573;BME280;59408;51.032;9.410;2023-02-10T01:04:43;100875.88;;;-4.00;98.13
71573;BME280;59408;51.032;9.410;2023-02-10T01:07:10;100883.09;;;-3.94;98.18
71573;BME280;59408;51.032;9.410;2023-02-10T01:09:36;100888.00;;;-3.91;98.29
71573;BME280;59408;51.032;9.410;2023-02-10T01:12:03;100887.41;;;-3.86;98.29
71573;BME280;59408;51.032;9.410;2023-02-10T01:14:30;100881.25;;;-3.87;98.75
71573;BME280;59408;51.032;9.410;2023-02-10T01:16:56;100884.38;;;-3.83;98.96
71573;BME280;59408;51.032;9.410;2023-02-10T01:19:24;100890.09;;;-3.80;99.01
71573;BME280;59408;51.032;9.410;2023-02-10T01:21:51;100891.56;;;-3.77;99.08
71573;BME280;59408;51.032;9.410;2023-02-10T01:24:18;100889.16;;;-3.59;98.37
71573;BME280;59408;51.032;9.410;2023-02-10T01:26:45;100883.81;;;-3.52;98.58
71573;BME280;59408;51.032;9.410;2023-02-10T01:29:12;100889.41;;;-3.47;98.53
71573;BME280;59408;51.032;9.410;2023-02-10T01:31:38;100888.38;;;-3.46;99.51
71573;BME280;59408;51.032;9.410;2023-02-10T01:34:05;100893.91;;;-3.48;100.00
71573;BME280;59408;51.032;9.410;2023-02-10T01:36:33;100902.72;;;-3.47;100.00
71573;BME280;59408;51.032;9.410;2023-02-10T01:39:00;100899.03;;;-3.46;100.00
71573;BME280;59408;51.032;9.410;2023-02-10T01:41:26;100896.59;;;-3.41;100.00
71573;BME280;59408;51.032;9.410;2023-02-10T01:43:56;100898.44;;;-3.35;100.00
71573;BME280;59408;51.032;9.410;2023-02-10T01:46:23;100903.56;;;-3.34;100.00
71573;BME280;59408;51.032;9.410;2023-02-10T01:48:50;100909.94;;;-3.35;100.00
71573;BME280;59408;51.032;9.410;2023-02-10T01:51:19;100905.63;;;-3.36;100.00
71573;BME280;59408;51.032;9.410;2023-02-10T01:53:49;100901.28;;;-3.37;100.00
71573;BME280;59408;51.032;9.410;2023-02-10T01:56:17;100909.31;;;-3.37;100.00
71573;BME280;59408;51.032;9.410;2023-02-10T01:58:44;100902.94;;;-3.36;100.00
71573;BME280;59408;51.032;9.410;2023-02-10T02:01:11;100903.19;;;-3.37;100.00
71573;BME280;59408;51.032;9.410;2023-02-10T02:03:37;100913.84;;;-3.37;100.00
71573;BME280;59408;51.032;9.410;2023-02-10T02:06:04;100910.13;;;-3.36;100.00
71573;BME280;59408;51.032;9.410;2023-02-10T02:08:31;100914.44;;;-3.35;100.00
71573;BME280;59408;51.032;9.410;2023-02-10T02:11:04;100916.91;;;-3.34;100.00
71573;BME280;59408;51.032;9.410;2023-02-10T02:13:46;100918.16;;;-3.30;100.00
71573;BME280;59408;51.032;9.410;2023-02-10T02:16:21;100916.31;;;-3.29;100.00
71573;BME280;59408;51.032;9.410;2023-02-10T02:18:57;100910.75;;;-3.28;100.00
71573;BME280;59408;51.032;9.410;2023-02-10T02:21:53;100914.28;;;-3.14;100.00
71573;BME280;59408;51.032;9.410;2023-02-10T02:24:41;100920.06;;;-3.10;99.91
71573;BME280;59408;51.032;9.410;2023-02-10T02:27:44;100916.97;;;-3.07;99.63
71573;BME280;59408;51.032;9.410;2023-02-10T02:33:40;100924.16;;;-2.95;99.23
71573;BME280;59408;51.032;9.410;2023-02-10T02:36:12;100920.69;;;-2.89;97.54
71573;BME280;59408;51.032;9.410;2023-02-10T02:38:40;100920.50;;;-2.74;96.40
71573;BME280;59408;51.032;9.410;2023-02-10T02:41:08;100920.09;;;-2.64;95.38
71573;BME280;59408;51.032;9.410;2023-02-10T02:43:35;100916.38;;;-2.50;94.12
71573;BME280;59408;51.032;9.410;2023-02-10T02:46:06;100914.91;;;-2.39;92.84
71573;BME280;59408;51.032;9.410;2023-02-10T02:48:46;100916.75;;;-2.33;92.28
71573;BME280;59408;51.032;9.410;2023-02-10T02:51:21;100918.41;;;-2.32;92.58
71573;BME280;59408;51.032;9.410;2023-02-10T02:53:58;100909.16;;;-2.30;91.98
71573;BME280;59408;51.032;9.410;2023-02-10T02:56:32;100913.03;;;-2.26;92.06
71573;BME280;59408;51.032;9.410;2023-02-10T02:59:06;100904.81;;;-2.31;92.75
71573;BME280;59408;51.032;9.410;2023-02-10T03:01:38;100907.50;;;-2.31;93.73
71573;BME280;59408;51.032;9.410;2023-02-10T03:04:12;100908.31;;;-2.24;92.75
71573;BME280;59408;51.032;9.410;2023-02-10T03:06:39;100909.50;;;-2.06;90.09
71573;BME280;59408;51.032;9.410;2023-02-10T03:09:06;100910.72;;;-2.02;89.78
71573;BME280;59408;51.032;9.410;2023-02-10T03:11:33;100911.94;;;-1.98;89.76
71573;BME280;59408;51.032;9.410;2023-02-10T03:14:00;100920.16;;;-1.93;89.42
71573;BME280;59408;51.032;9.410;2023-02-10T03:16:26;100916.84;;;-1.89;89.09
71573;BME280;59408;51.032;9.410;2023-02-10T03:18:53;100914.56;;;-1.85;88.36
71573;BME280;59408;51.032;9.410;2023-02-10T03:21:21;100919.88;;;-1.79;87.23
71573;BME280;59408;51.032;9.410;2023-02-10T03:23:48;100915.97;;;-1.76;87.50
71573;BME280;59408;51.032;9.410;2023-02-10T03:26:14;100922.97;;;-1.75;87.08
71573;BME280;59408;51.032;9.410;2023-02-10T03:28:41;100925.84;;;-1.77;87.01
71573;BME280;59408;51.032;9.410;2023-02-10T03:31:08;100935.31;;;-1.81;87.54
71573;BME280;59408;51.032;9.410;2023-02-10T03:33:35;100938.41;;;-1.77;87.54
71573;BME280;59408;51.032;9.410;2023-02-10T03:36:02;100931.63;;;-1.80;87.23
71573;BME280;59408;51.032;9.410;2023-02-10T03:38:30;100935.13;;;-1.79;87.24
71573;BME280;59408;51.032;9.410;2023-02-10T03:40:57;100939.66;;;-1.80;87.39
71573;BME280;59408;51.032;9.410;2023-02-10T03:43:23;100946.63;;;-1.79;87.31
71573;BME280;59408;51.032;9.410;2023-02-10T03:45:50;100943.56;;;-1.76;87.67
71573;BME280;59408;51.032;9.410;2023-02-10T03:48:17;100938.00;;;-1.74;87.00
71573;BME280;59408;51.032;9.410;2023-02-10T03:50:44;100949.53;;;-1.73;87.27
71573;BME280;59408;51.032;9.410;2023-02-10T03:53:11;100946.44;;;-1.77;87.88
71573;BME280;59408;51.032;9.410;2023-02-10T03:55:39;100948.47;;;-1.72;87.07
71573;BME280;59408;51.032;9.410;2023-02-10T03:58:06;100949.53;;;-1.73;87.51
71573;BME280;59408;51.032;9.410;2023-02-10T04:00:32;100955.47;;;-1.71;87.30
71573;BME280;59408;51.032;9.410;2023-02-10T04:02:59;100951.38;;;-1.74;87.78
71573;BME280;59408;51.032;9.410;2023-02-10T04:05:26;100952.19;;;-1.73;87.35
71573;BME280;59408;51.032;9.410;2023-02-10T04:07:52;100955.47;;;-1.71;87.30
71573;BME280;59408;51.032;9.410;2023-02-10T04:10:19;100951.53;;;-1.69;87.11
71573;BME280;59408;51.032;9.410;2023-02-10T04:12:47;100956.06;;;-1.69;87.24
71573;BME280;59408;51.032;9.410;2023-02-10T04:15:14;100951.34;;;-1.67;87.16
71573;BME280;59408;51.032;9.410;2023-02-10T04:17:41;100946.19;;;-1.69;87.58
71573;BME280;59408;51.032;9.410;2023-02-10T04:20:08;100954.00;;;-1.67;87.44
71573;BME280;59408;51.032;9.410;2023-02-10T04:22:34;100946.19;;;-1.69;87.38
71573;BME280;59408;51.032;9.410;2023-02-10T04:25:01;100950.34;;;-1.73;87.80
71573;BME280;59408;51.032;9.410;2023-02-10T04:27:28;100955.91;;;-1.74;88.07
71573;BME280;59408;51.032;9.410;2023-02-10T04:29:56;100948.28;;;-1.78;88.13
71573;BME280;59408;51.032;9.410;2023-02-10T04:32:23;100946.63;;;-1.79;88.10
71573;BME280;59408;51.032;9.410;2023-02-10T04:34:50;100947.88;;;-1.81;88.99
71573;BME280;59408;51.032;9.410;2023-02-10T04:37:16;100955.69;;;-1.80;88.85
71573;BME280;59408;51.032;9.410;2023-02-10T04:39:43;100950.53;;;-1.81;88.57
71573;BME280;59408;51.032;9.410;2023-02-10T04:42:09;100958.56;;;-1.74;88.79
71573;BME280;59408;51.032;9.410;2023-02-10T04:44:36;100957.53;;;-1.73;89.09
71573;BME280;59408;51.032;9.410;2023-02-10T04:47:04;100959.78;;;-1.70;88.89
71573;BME280;59408;51.032;9.410;2023-02-10T04:49:31;100965.34;;;-1.72;89.49
71573;BME280;59408;51.032;9.410;2023-02-10T04:51:58;100967.00;;;-1.78;89.86
71573;BME280;59408;51.032;9.410;2023-02-10T04:54:24;100972.97;;;-1.76;89.85
71573;BME280;59408;51.032;9.410;2023-02-10T04:56:51;100971.31;;;-1.77;90.15
71573;BME280;59408;51.032;9.410;2023-02-10T04:59:17;100964.75;;;-1.81;90.49
71573;BME280;59408;51.032;9.410;2023-02-10T05:01:44;100965.38;;;-1.85;91.10
71573;BME280;59408;51.032;9.410;2023-02-10T05:04:12;100968.28;;;-1.87;91.38
71573;BME280;59408;51.032;9.410;2023-02-10T05:06:39;100963.56;;;-1.91;91.67
71573;BME280;59408;51.032;9.410;2023-02-10T05:09:05;100965.00;;;-1.95;91.89
71573;BME280;59408;51.032;9.410;2023-02-10T05:11:32;100971.56;;;-1.98;92.04
71573;BME280;59408;51.032;9.410;2023-02-10T05:13:59;100971.41;;;-2.03;92.69
71573;BME280;59408;51.032;9.410;2023-02-10T05:16:25;100975.09;;;-2.04;92.95
71573;BME280;59408;51.032;9.410;2023-02-10T05:18:52;100975.28;;;-1.99;93.55
71573;BME280;59408;51.032;9.410;2023-02-10T05:21:20;100976.31;;;-2.00;93.80
71573;BME280;59408;51.032;9.410;2023-02-10T05:23:47;100981.44;;;-1.98;94.10
71573;BME280;59408;51.032;9.410;2023-02-10T05:26:13;100982.69;;;-1.94;93.96
71573;BME280;59408;51.032;9.410;2023-02-10T05:28:40;100972.19;;;-1.96;93.89
71573;BME280;59408;51.032;9.410;2023-02-10T05:31:07;100976.31;;;-2.00;94.02
71573;BME280;59408;51.032;9.410;2023-02-10T05:33:34;100975.94;;;-2.10;94.34
71573;BME280;59408;51.032;9.410;2023-02-10T05:36:01;100972.44;;;-2.17;95.09
71573;BME280;59408;51.032;9.410;2023-02-10T05:38:29;100967.31;;;-2.25;95.16
71573;BME280;59408;51.032;9.410;2023-02-10T05:40:55;100963.19;;;-2.34;95.57
71573;BME280;59408;51.032;9.410;2023-02-10T05:43:22;100964.63;;;-2.45;95.89
71573;BME280;59408;51.032;9.410;2023-02-10T05:45:49;100964.44;;;-2.50;96.47
71573;BME280;59408;51.032;9.410;2023-02-10T05:48:16;100959.94;;;-2.56;97.11
71573;BME280;59408;51.032;9.410;2023-02-10T05:50:42;100960.94;;;-2.64;97.33
71573;BME280;59408;51.032;9.410;2023-02-10T05:53:09;100963.81;;;-2.72;97.97
71573;BME280;59408;51.032;9.410;2023-02-10T05:55:37;100963.00;;;-2.79;98.49
71573;BME280;59408;51.032;9.410;2023-02-10T05:58:04;100958.06;;;-2.89;98.85
71573;BME280;59408;51.032;9.410;2023-02-10T06:00:31;100956.81;;;-2.99;98.90
71573;BME280;59408;51.032;9.410;2023-02-10T06:02:57;100960.91;;;-3.10;99.08
71573;BME280;59408;51.032;9.410;2023-02-10T06:05:24;100961.06;;;-3.24;99.56
71573;BME280;59408;51.032;9.410;2023-02-10T06:07:51;100966.16;;;-3.36;100.00
71573;BME280;59408;51.032;9.410;2023-02-10T06:10:17;100959.38;;;-3.39;100.00
71573;BME280;59408;51.032;9.410;2023-02-10T06:12:46;100983.34;;;-3.45;100.00
71573;BME280;59408;51.032;9.410;2023-02-10T06:15:12;100975.13;;;-3.57;100.00
71573;BME280;59408;51.032;9.410;2023-02-10T06:17:39;100979.81;;;-3.66;100.00
71573;BME280;59408;51.032;9.410;2023-02-10T06:20:06;100979.97;;;-3.74;100.00
71573;BME280;59408;51.032;9.410;2023-02-10T06:22:33;100986.69;;;-3.78;100.00
71573;BME280;59408;51.032;9.410;2023-02-10T06:24:59;100993.66;;;-3.83;100.00
71573;BME280;59408;51.032;9.410;2023-02-10T06:27:26;100998.16;;;-3.84;100.00
71573;BME280;59408;51.032;9.410;2023-02-10T06:29:54;100998.16;;;-3.84;100.00
71573;BME280;59408;51.032;9.410;2023-02-10T06:32:20;101014.53;;;-3.87;100.00
71573;BME280;59408;51.032;9.410;2023-02-10T06:34:47;101018.81;;;-3.92;100.00
71573;BME280;59408;51.032;9.410;2023-02-10T06:37:14;101021.69;;;-3.94;100.00
71573;BME280;59408;51.032;9.410;2023-02-10T06:39:40;101021.19;;;-4.04;100.00
71573;BME280;59408;51.032;9.410;2023-02-10T06:42:07;101023.84;;;-4.04;100.00
71573;BME280;59408;51.032;9.410;2023-02-10T06:44:34;101032.88;;;-4.05;100.00
71573;BME280;59408;51.032;9.410;2023-02-10T06:47:02;101036.13;;;-4.10;100.00
71573;BME280;59408;51.032;9.410;2023-02-10T06:49:28;101039.34;;;-4.14;100.00
71573;BME280;59408;51.032;9.410;2023-02-10T06:51:55;101035.69;;;-4.13;100.00
71573;BME280;59408;51.032;9.410;2023-02-10T06:54:21;101038.97;;;-4.11;100.00
71573;BME280;59408;51.032;9.410;2023-02-10T06:56:48;101040.41;;;-4.09;100.00
71573;BME280;59408;51.032;9.410;2023-02-10T06:59:15;101044.72;;;-4.08;100.00
71573;BME280;59408;51.032;9.410;2023-02-10T07:01:42;101045.13;;;-4.11;100.00
71573;BME280;59408;51.032;9.410;2023-02-10T07:04:10;101041.19;;;-4.15;100.00
71573;BME280;59408;51.032;9.410;2023-02-10T07:06:37;101049.63;;;-4.11;100.00
71573;BME280;59408;51.032;9.410;2023-02-10T07:09:03;101047.59;;;-4.09;100.00
71573;BME280;59408;51.032;9.410;2023-02-10T07:11:30;101054.38;;;-4.07;100.00
71573;BME280;59408;51.032;9.410;2023-02-10T07:13:57;101051.16;;;-4.02;100.00
71573;BME280;59408;51.032;9.410;2023-02-10T07:16:23;101056.38;;;-3.87;100.00
71573;BME280;59408;51.032;9.410;2023-02-10T07:18:50;101056.47;;;-3.74;100.00
71573;BME280;59408;51.032;9.410;2023-02-10T07:21:18;101061.81;;;-3.68;100.00
71573;BME280;59408;51.032;9.410;2023-02-10T07:23:45;101063.28;;;-3.65;100.00
71573;BME280;59408;51.032;9.410;2023-02-10T07:26:12;101059.00;;;-3.59;100.00
71573;BME280;59408;51.032;9.410;2023-02-10T07:28:38;101070.94;;;-3.55;100.00
71573;BME280;59408;51.032;9.410;2023-02-10T07:31:05;101066.25;;;-3.47;100.00
71573;BME280;59408;51.032;9.410;2023-02-10T07:33:32;101067.16;;;-3.27;100.00
71573;BME280;59408;51.032;9.410;2023-02-10T07:35:59;101073.56;;;-3.21;100.00
71573;BME280;59408;51.032;9.410;2023-02-10T07:38:27;101072.59;;;-3.07;100.00
71573;BME280;59408;51.032;9.410;2023-02-10T07:40:54;101078.19;;;-2.89;100.00
71573;BME280;59408;51.032;9.410;2023-02-10T07:43:20;101083.78;;;-2.70;100.00
71573;BME280;59408;51.032;9.410;2023-02-10T07:45:47;101076.03;;;-2.59;100.00
71573;BME280;59408;51.032;9.410;2023-02-10T07:48:14;101079.13;;;-2.48;100.00
71573;BME280;59408;51.032;9.410;2023-02-10T07:50:41;101071.94;;;-2.35;100.00
71573;BME280;59408;51.032;9.410;2023-02-10T07:53:07;101074.00;;;-2.30;100.00
71573;BME280;59408;51.032;9.410;2023-02-10T07:55:37;101070.09;;;-2.15;100.00
71573;BME280;59408;51.032;9.410;2023-02-10T07:58:04;101079.16;;;-2.02;100.00
71573;BME280;59408;51.032;9.410;2023-02-10T08:00:31;101071.94;;;-1.89;100.00
71573;BME280;59408;51.032;9.410;2023-02-10T08:02:58;101081.19;;;-1.78;100.00
71573;BME280;59408;51.032;9.410;2023-02-10T08:05:24;101077.28;;;-1.69;100.00
71573;BME280;59408;51.032;9.410;2023-02-10T08:07:51;101076.44;;;-1.63;100.00
71573;BME280;59408;51.032;9.410;2023-02-10T08:10:18;101080.16;;;-1.57;100.00
71573;BME280;59408;51.032;9.410;2023-02-10T08:12:46;101087.53;;;-1.53;100.00
71573;BME280;59408;51.032;9.410;2023-02-10T08:15:13;101089.78;;;-1.50;100.00
71573;BME280;59408;51.032;9.410;2023-02-10T08:17:40;101088.78;;;-1.49;100.00
71573;BME280;59408;51.032;9.410;2023-02-10T08:20:07;101084.88;;;-1.46;100.00
71573;BME280;59408;51.032;9.410;2023-02-10T08:22:35;101093.47;;;-1.44;100.00
71573;BME280;59408;51.032;9.410;2023-02-10T08:25:01;101095.53;;;-1.40;100.00
71573;BME280;59408;51.032;9.410;2023-02-10T08:27:28;101098.00;;;-1.38;100.00
71573;BME280;59408;51.032;9.410;2023-02-10T08:29:56;101098.41;;;-1.34;100.00
71573;BME280;59408;51.032;9.410;2023-02-10T08:32:23;101103.75;;;-1.28;100.00
71573;BME280;59408;51.032;9.410;2023-02-10T08:34:50;101105.38;;;-1.20;100.00
71573;BME280;59408;51.032;9.410;2023-02-10T08:37:17;101101.06;;;-1.21;100.00
71573;BME280;59408;51.032;9.410;2023-02-10T08:39:44;101106.59;;;-1.16;100.00
71573;BME280;59408;51.032;9.410;2023-02-10T08:42:11;101102.25;;;-1.11;100.00
71573;BME280;59408;51.032;9.410;2023-02-10T08:44:37;101107.63;;;-1.11;100.00
71573;BME280;59408;51.032;9.410;2023-02-10T08:47:06;101107.34;;;-0.96;100.00
71573;BME280;59408;51.032;9.410;2023-02-10T08:49:35;101106.06;;;-0.87;100.00
71573;BME280;59408;51.032;9.410;2023-02-10T08:52:02;101108.09;;;-0.76;100.00
71573;BME280;59408;51.032;9.410;2023-02-10T08:54:28;101107.16;;;-0.63;100.00
71573;BME280;59408;51.032;9.410;2023-02-10T08:56:55;101103.19;;;-0.47;100.00
71573;BME280;59408;51.032;9.410;2023-02-10T08:59:22;101113.56;;;-0.26;99.86
71573;BME280;59408;51.032;9.410;2023-02-10T09:01:48;101111.53;;;-0.31;98.26
71573;BME280;59408;51.032;9.410;2023-02-10T09:04:17;101118.50;;;-0.23;98.02
71573;BME280;59408;51.032;9.410;2023-02-10T09:06:44;101108.25;;;-0.08;98.30
71573;BME280;59408;51.032;9.410;2023-02-10T09:09:12;101118.50;;;0.02;97.19
71573;BME280;59408;51.032;9.410;2023-02-10T09:11:39;101113.69;;;-0.14;96.98
71573;BME280;59408;51.032;9.410;2023-02-10T09:14:06;101119.72;;;-0.19;97.09
71573;BME280;59408;51.032;9.410;2023-02-10T09:16:33;101112.22;;;-0.10;96.70
71573;BME280;59408;51.032;9.410;2023-02-10T09:19:00;101110.66;;;0.07;97.09
71573;BME280;59408;51.032;9.410;2023-02-10T09:21:29;101118.28;;;0.03;96.60
71573;BME280;59408;51.032;9.410;2023-02-10T09:24:12;101113.75;;;0.04;96.25
71573;BME280;59408;51.032;9.410;2023-02-10T09:26:39;101112.00;;;0.16;95.55
71573;BME280;59408;51.032;9.410;2023-02-10T09:29:05;101110.09;;;0.23;94.58
71573;BME280;59408;51.032;9.410;2023-02-10T09:31:32;101110.09;;;0.23;94.35
71573;BME280;59408;51.032;9.410;2023-02-10T09:33:59;101110.31;;;0.22;93.86
71573;BME280;59408;51.032;9.410;2023-02-10T09:36:25;101117.31;;;0.23;94.04
71573;BME280;59408;51.032;9.410;2023-02-10T09:38:54;101115.03;;;0.26;93.80
71573;BME280;59408;51.032;9.410;2023-02-10T09:41:39;101113.34;;;0.50;93.18
71573;BME280;59408;51.032;9.410;2023-02-10T09:44:13;101119.63;;;0.62;92.55
71573;BME280;59408;51.032;9.410;2023-02-10T09:46:47;101118.53;;;0.88;91.50
71573;BME280;59408;51.032;9.410;2023-02-10T09:52:29;101122.47;;;1.04;90.22
71573;BME280;59408;51.032;9.410;2023-02-10T09:54:59;101133.59;;;0.89;89.30
71573;BME280;59408;51.032;9.410;2023-02-10T09:57:32;101131.88;;;0.76;90.58
71573;BME280;59408;51.032;9.410;2023-02-10T10:00:03;101135.25;;;0.47;91.03
71573;BME280;59408;51.032;9.410;2023-02-10T10:02:34;101141.09;;;0.44;91.12
71573;BME280;59408;51.032;9.410;2023-02-10T10:05:12;101144.31;;;0.53;90.43
71573;BME280;59408;51.032;9.410;2023-02-10T10:07:45;101136.06;;;0.72;90.33
71573;BME280;59408;51.032;9.410;2023-02-10T10:10:20;101141.72;;;0.82;88.99
71573;BME280;59408;51.032;9.410;2023-02-10T10:12:49;101143.63;;;0.82;88.20
71573;BME280;59408;51.032;9.410;2023-02-10T10:15:16;101144.13;;;0.91;88.82
71573;BME280;59408;51.032;9.410;2023-02-10T10:17:55;101144.25;;;0.77;87.77
71573;BME280;59408;51.032;9.410;2023-02-10T10:20:50;101152.53;;;0.76;88.37
71573;BME280;59408;51.032;9.410;2023-02-10T10:23:34;101146.53;;;0.99;87.79
71573;BME280;59408;51.032;9.410;2023-02-10T10:26:23;101147.03;;;1.07;87.18
71573;BME280;59408;51.032;9.410;2023-02-10T10:29:18;101146.66;;;0.85;87.95
71573;BME280;59408;51.032;9.410;2023-02-10T10:31:46;101146.66;;;0.42;90.09
71573;BME280;59408;51.032;9.410;2023-02-10T10:34:16;101147.22;;;0.51;90.41
71573;BME280;59408;51.032;9.410;2023-02-10T10:36:45;101144.75;;;0.49;90.55
71573;BME280;59408;51.032;9.410;2023-02-10T10:39:16;101143.69;;;0.50;91.11
71573;BME280;59408;51.032;9.410;2023-02-10T10:41:49;101151.88;;;0.62;90.83
71573;BME280;59408;51.032;9.410;2023-02-10T10:44:17;101141.03;;;0.69;90.70
71573;BME280;59408;51.032;9.410;2023-02-10T10:46:47;101145.28;;;0.58;90.74
71573;BME280;59408;51.032;9.410;2023-02-10T10:49:16;101131.78;;;0.65;91.10
71573;BME280;59408;51.032;9.410;2023-02-10T10:51:43;101133.28;;;0.61;91.08
71573;BME280;59408;51.032;9.410;2023-02-10T10:54:14;101132.28;;;0.55;91.34
71573;BME280;59408;51.032;9.410;2023-02-10T10:56:44;101132.59;;;0.65;90.98
71573;BME280;59408;51.032;9.410;2023-02-10T10:59:16;101126.41;;;0.65;91.04
71573;BME280;59408;51.032;9.410;2023-02-10T11:01:47;101120.00;;;0.66;90.64
71573;BME280;59408;51.032;9.410;2023-02-10T11:04:16;101113.88;;;0.59;91.47
71573;BME280;59408;51.032;9.410;2023-02-10T11:06:45;101128.06;;;0.66;90.93
71573;BME280;59408;51.032;9.410;2023-02-10T11:09:24;101119.34;;;0.70;91.29
71573;BME280;59408;51.032;9.410;2023-02-10T11:11:53;101111.22;;;0.77;91.46
71573;BME280;59408;51.032;9.410;2023-02-10T11:14:25;101113.97;;;0.88;91.20
71573;BME280;59408;51.032;9.410;2023-02-10T11:16:53;101118.44;;;0.76;91.07
71573;BME280;59408;51.032;9.410;2023-02-10T11:19:23;101117.69;;;0.69;91.76
71573;BME280;59408;51.032;9.410;2023-02-10T11:21:51;101112.94;;;0.71;91.50
71573;BME280;59408;51.032;9.410;2023-02-10T11:24:21;101117.00;;;0.74;91.53
71573;BME280;59408;51.032;9.410;2023-02-10T11:27:00;101124.50;;;0.72;91.27
71573;BME280;59408;51.032;9.410;2023-02-10T11:29:30;101115.09;;;0.81;91.45
71573;BME280;59408;51.032;9.410;2023-02-10T11:31:58;101107.91;;;0.75;90.74
71573;BME280;59408;51.032;9.410;2023-02-10T11:34:27;101109.66;;;0.69;91.21
71573;BME280;59408;51.032;9.410;2023-02-10T11:36:56;101109.34;;;0.96;90.28
71573;BME280;59408;51.032;9.410;2023-02-10T11:39:27;101106.66;;;1.14;89.48
71573;BME280;59408;51.032;9.410;2023-02-10T11:41:54;101101.19;;;1.50;88.50
71573;BME280;59408;51.032;9.410;2023-02-10T11:44:25;101102.06;;;1.62;87.02
71573;BME280;59408;51.032;9.410;2023-02-10T11:47:01;101097.75;;;1.61;86.78
71573;BME280;59408;51.032;9.410;2023-02-10T11:49:29;101097.84;;;1.55;87.36
71573;BME280;59408;51.032;9.410;2023-02-10T11:51:57;101101.19;;;1.80;86.08
71573;BME280;59408;51.032;9.410;2023-02-10T11:54:24;101094.31;;;2.19;84.43
71573;BME280;59408;51.032;9.410;2023-02-10T11:56:58;101095.50;;;2.12;84.38
71573;BME280;59408;51.032;9.410;2023-02-10T11:59:31;101083.44;;;2.14;84.34
71573;BME280;59408;51.032;9.410;2023-02-10T12:02:09;101080.41;;;2.46;83.55
71573;BME280;59408;51.032;9.410;2023-02-10T12:05:01;101069.97;;;2.72;82.60
71573;BME280;59408;51.032;9.410;2023-02-10T12:07:42;101079.56;;;2.57;82.21
71573;BME280;59408;51.032;9.410;2023-02-10T12:10:15;101075.69;;;2.64;82.09
71573;BME280;59408;51.032;9.410;2023-02-10T12:12:52;101072.97;;;3.28;80.92
71573;BME280;59408;51.032;9.410;2023-02-10T12:15:33;101071.56;;;3.25;79.29
71573;BME280;59408;51.032;9.410;2023-02-10T12:18:14;101063.47;;;3.54;79.46
71573;BME280;59408;51.032;9.410;2023-02-10T12:20:54;101059.53;;;3.44;78.35
71573;BME280;59408;51.032;9.410;2023-02-10T12:23:34;101058.13;;;3.42;78.95
71573;BME280;59408;51.032;9.410;2023-02-10T12:26:11;101049.28;;;3.46;78.40
71573;BME280;59408;51.032;9.410;2023-02-10T12:28:51;101047.91;;;3.44;78.05
71573;BME280;59408;51.032;9.410;2023-02-10T12:31:25;101060.03;;;3.30;77.75
71573;BME280;59408;51.032;9.410;2023-02-10T12:34:11;101047.84;;;3.56;77.89
71573;BME280;59408;51.032;9.410;2023-02-10T12:36:50;101056.00;;;3.44;77.51
71573;BME280;59408;51.032;9.410;2023-02-10T12:39:22;101043.19;;;3.51;78.27
71573;BME280;59408;51.032;9.410;2023-02-10T12:41:58;101054.97;;;3.17;78.97
71573;BME280;59408;51.032;9.410;2023-02-10T12:44:39;101046.47;;;3.25;78.90
71573;BME280;59408;51.032;9.410;2023-02-10T12:47:19;101041.53;;;3.33;78.13
71573;BME280;59408;51.032;9.410;2023-02-10T12:50:07;101038.00;;;3.33;78.76
71573;BME280;59408;51.032;9.410;2023-02-10T12:52:47;101045.47;;;3.59;78.00
71573;BME280;59408;51.032;9.410;2023-02-10T12:55:19;101039.31;;;3.47;78.54
71573;BME280;59408;51.032;9.410;2023-02-10T12:57:51;101038.66;;;3.40;78.11
71573;BME280;59408;51.032;9.410;2023-02-10T13:00:22;101031.66;;;3.56;77.97
71573;BME280;59408;51.032;9.410;2023-02-10T13:02:54;101033.50;;;3.38;77.80
71573;BME280;59408;51.032;9.410;2023-02-10T13:05:27;101030.41;;;3.46;78.46
71573;BME280;59408;51.032;9.410;2023-02-10T13:07:58;101012.38;;;3.80;77.86